Time;durP1;ratioP1;P1;durP2;ratioP2;P2;SDS_P1;SDS_P2;PMS_P1;PMS_P2;Temp;Humidity;BMP_temperature;BMP_pressure;BME280_temperature;BME280_humidity;BME280_pressure;Samples;Min_cycle;Max_cycle;Signal;HPM_P1;HPM_P2
2023/01/12 00:01:37;;;;;;;;;;;;;;;6.40;86.96;100801.84;4130128;28;20012;-62
2023/01/12 00:03:39;;;;;;;;;;;;;;;6.40;87.00;100787.59;4131793;28;20442;-63
2023/01/12 00:05:41;;;;;;;;;;;;;;;6.40;87.11;100793.78;4131718;28;20373;-63
2023/01/12 00:07:44;;;;;;;;;;;;;;;6.40;87.10;100787.59;4130739;28;20008;-63
2023/01/12 00:09:46;;;;;;;;;;;;;;;6.39;87.01;100792.09;4131379;28;20030;-64
2023/01/12 00:11:48;;;;;;;;;;;;;;;6.39;87.45;100800.16;4130108;28;20033;-64
2023/01/12 00:13:50;;;;;;;;;;;;;;;6.38;87.26;100801.16;4130278;28;20016;-62
2023/01/12 00:18:11;;;;;;;;;;;;;;;6.40;87.11;100811.75;4146076;28;20060;-62
2023/01/12 00:20:13;;;;;;;;;;;;;;;6.37;87.10;100804.81;4113229;28;20045;-63
2023/01/12 00:22:18;;;;;;;;;;;;;;;6.37;87.12;100807.50;4130768;28;20008;-64
2023/01/12 00:24:21;;;;;;;;;;;;;;;6.37;87.23;100828.97;4131227;28;19922;-64
2023/01/12 00:26:23;;;;;;;;;;;;;;;6.37;87.15;100826.28;4129731;28;20020;-64
2023/01/12 00:28:25;;;;;;;;;;;;;;;6.37;87.11;100815.56;4130147;28;20459;-64
2023/01/12 00:30:28;;;;;;;;;;;;;;;6.38;86.96;100819.06;4129313;28;20466;-64
2023/01/12 00:32:30;;;;;;;;;;;;;;;6.37;87.15;100818.25;4130355;28;20056;-64
2023/01/12 00:34:32;;;;;;;;;;;;;;;6.38;86.70;100822.63;4131213;28;20371;-64
2023/01/12 00:36:34;;;;;;;;;;;;;;;6.36;86.71;100808.47;4130730;28;19953;-63
2023/01/12 00:38:37;;;;;;;;;;;;;;;6.36;86.89;100810.34;4129708;28;21460;-61
2023/01/12 00:40:40;;;;;;;;;;;;;;;6.34;86.45;100815.84;4130577;28;20366;-63
2023/01/12 00:47:21;;;;;;;;;;;;;;;6.31;86.51;100810.78;4130044;28;20008;-62
2023/01/12 00:49:23;;;;;;;;;;;;;;;6.30;86.48;100803.72;4113509;28;20025;-63
2023/01/12 00:51:25;;;;;;;;;;;;;;;6.28;86.41;100803.03;4129509;28;20020;-61
2023/01/12 00:53:27;;;;;;;;;;;;;;;6.28;86.61;100800.34;4130302;28;20013;-64
2023/01/12 00:55:32;;;;;;;;;;;;;;;6.29;86.23;100802.03;4131337;28;19929;-63
2023/01/12 00:57:35;;;;;;;;;;;;;;;6.28;86.39;100813.75;4143691;28;19929;-63
2023/01/12 00:59:37;;;;;;;;;;;;;;;6.28;86.08;100808.38;4130463;28;20009;-63
2023/01/12 01:01:39;;;;;;;;;;;;;;;6.25;86.28;100790.78;4129053;28;20036;-63
2023/01/12 01:03:41;;;;;;;;;;;;;;;6.23;85.87;100792.72;4130382;28;20360;-62
2023/01/12 01:05:43;;;;;;;;;;;;;;;6.22;85.93;100785.69;4130663;28;19925;-63
2023/01/12 01:07:46;;;;;;;;;;;;;;;6.24;86.14;100785.56;4130152;28;20028;-62
2023/01/12 01:09:48;;;;;;;;;;;;;;;6.25;85.88;100796.13;4130513;28;20012;-62
2023/01/12 01:11:50;;;;;;;;;;;;;;;6.23;85.90;100781.16;4128375;28;20463;-63
2023/01/12 01:13:55;;;;;;;;;;;;;;;6.23;85.90;100786.53;4129998;28;20017;-62
2023/01/12 01:15:58;;;;;;;;;;;;;;;6.22;85.30;100796.44;4130540;28;20008;-63
2023/01/12 01:18:00;;;;;;;;;;;;;;;6.24;85.37;100789.06;4129752;28;20384;-64
2023/01/12 01:20:03;;;;;;;;;;;;;;;6.23;85.17;100773.97;4130779;28;20005;-64
2023/01/12 01:22:05;;;;;;;;;;;;;;;6.24;84.82;100780.19;4129605;28;20020;-64
2023/01/12 01:24:09;;;;;;;;;;;;;;;6.25;84.83;100774.69;4130424;28;20013;-64
2023/01/12 01:26:13;;;;;;;;;;;;;;;6.24;84.46;100772.16;4130427;28;20012;-64
2023/01/12 01:28:15;;;;;;;;;;;;;;;6.25;84.75;100789.91;4129593;28;20064;-64
2023/01/12 01:30:18;;;;;;;;;;;;;;;6.26;84.38;100770.16;4129237;28;20012;-64
2023/01/12 01:32:20;;;;;;;;;;;;;;;6.26;84.41;100802.34;4129770;28;20016;-64
2023/01/12 01:34:23;;;;;;;;;;;;;;;6.28;84.22;100781.56;4130046;28;20025;-64
2023/01/12 01:36:25;;;;;;;;;;;;;;;6.29;84.14;100780.59;4113337;28;20017;-64
2023/01/12 01:38:27;;;;;;;;;;;;;;;6.26;83.70;100757.56;4129344;28;19921;-65
2023/01/12 01:40:29;;;;;;;;;;;;;;;6.27;83.92;100766.44;4129017;28;20008;-64
2023/01/12 01:42:31;;;;;;;;;;;;;;;6.30;83.59;100755.44;4129029;28;20020;-65
2023/01/12 01:44:48;;;;;;;;;;;;;;;6.31;83.70;100751.75;4130058;28;20016;-63
2023/01/12 01:46:52;;;;;;;;;;;;;;;6.30;83.42;100768.84;4129309;28;20020;-64
2023/01/12 01:48:54;;;;;;;;;;;;;;;6.30;83.22;100750.06;4129874;28;19965;-64
2023/01/12 01:50:57;;;;;;;;;;;;;;;6.29;83.04;100743.88;4129243;28;20021;-64
2023/01/12 01:52:59;;;;;;;;;;;;;;;6.28;83.09;100746.69;4129343;28;20016;-64
2023/01/12 01:55:03;;;;;;;;;;;;;;;6.28;83.00;100739.47;4130078;28;20008;-64
2023/01/12 01:57:05;;;;;;;;;;;;;;;6.27;82.99;100724.41;4129027;28;20008;-64
2023/01/12 01:59:08;;;;;;;;;;;;;;;6.27;82.87;100731.59;4130114;28;19926;-64
2023/01/12 02:01:10;;;;;;;;;;;;;;;6.27;82.96;100735.13;4129137;28;20060;-64
2023/01/12 02:03:13;;;;;;;;;;;;;;;6.26;83.10;100741.47;4128626;28;20459;-64
2023/01/12 02:05:17;;;;;;;;;;;;;;;6.27;82.73;100734.25;4129794;28;20044;-64
2023/01/12 02:07:19;;;;;;;;;;;;;;;6.26;82.64;100744.16;4128615;28;20028;-64
2023/01/12 02:09:22;;;;;;;;;;;;;;;6.29;82.90;100726.94;4129695;28;20032;-62
2023/01/12 02:16:22;;;;;;;;;;;;;;;6.35;82.36;100722.78;4125478;28;20010;-63
2023/01/12 02:18:25;;;;;;;;;;;;;;;6.32;82.40;100722.09;4127342;28;20452;-63
2023/01/12 02:20:40;;;;;;;;;;;;;;;6.32;82.35;100719.44;4127823;28;20383;-63
2023/01/12 02:23:06;;;;;;;;;;;;;;;6.32;82.03;100715.91;4110860;28;20004;-62
2023/01/12 02:25:16;;;;;;;;;;;;;;;6.35;81.93;100694.16;4129530;28;20008;-62
2023/01/12 02:27:22;;;;;;;;;;;;;;;6.35;82.06;100695.97;4128364;28;20036;-62
2023/01/12 02:29:42;;;;;;;;;;;;;;;6.35;82.12;100688.78;4129406;28;20012;-62
2023/01/12 02:31:47;;;;;;;;;;;;;;;6.35;82.24;100704.00;4128263;28;20025;-63
2023/01/12 02:33:52;;;;;;;;;;;;;;;6.36;81.79;100709.22;4129444;28;20005;-61
2023/01/12 02:35:55;;;;;;;;;;;;;;;6.36;81.56;100711.91;4129445;28;20030;-62
2023/01/12 02:37:59;;;;;;;;;;;;;;;6.37;81.66;100704.72;4127924;28;20044;-64
2023/01/12 02:40:02;;;;;;;;;;;;;;;6.37;81.75;100713.59;4129210;28;20013;-63
2023/01/12 02:44:26;;;;;;;;;;;;;;;6.39;81.87;100708.09;4129137;28;20009;-63
2023/01/12 02:46:28;;;;;;;;;;;;;;;6.39;82.07;100713.47;4129355;28;20016;-63
2023/01/12 02:48:32;;;;;;;;;;;;;;;6.39;81.95;100718.81;4128034;28;20009;-62
2023/01/12 02:50:34;;;;;;;;;;;;;;;6.40;81.94;100691.03;4128359;28;20369;-63
2023/01/12 02:52:38;;;;;;;;;;;;;;;6.40;82.17;100699.91;4128592;28;20016;-62
2023/01/12 02:54:40;;;;;;;;;;;;;;;6.40;82.79;100705.25;4128743;28;20020;-63
2023/01/12 02:56:43;;;;;;;;;;;;;;;6.40;82.79;100691.03;4128048;28;20549;-62
2023/01/12 02:58:46;;;;;;;;;;;;;;;6.40;82.90;100696.38;4129051;28;20376;-63
2023/01/12 03:00:49;;;;;;;;;;;;;;;6.40;82.97;100696.38;4128342;28;20009;-63
2023/01/12 03:02:51;;;;;;;;;;;;;;;6.38;82.93;100672.38;4143318;28;19953;-64
2023/01/12 03:05:02;;;;;;;;;;;;;;;6.39;83.07;100674.06;4129357;28;20023;-63
2023/01/12 03:07:25;;;;;;;;;;;;;;;6.38;83.25;100672.38;4127884;28;20004;-63
2023/01/12 03:09:28;;;;;;;;;;;;;;;6.39;83.27;100670.53;4107991;28;20013;-63
2023/01/12 03:11:30;;;;;;;;;;;;;;;6.39;83.51;100683.94;4128485;28;20024;-63
2023/01/12 03:13:33;;;;;;;;;;;;;;;6.39;83.39;100665.16;4127896;28;20621;-63
2023/01/12 03:15:35;;;;;;;;;;;;;;;6.38;83.28;100663.47;4129030;28;20017;-63
2023/01/12 03:17:39;;;;;;;;;;;;;;;6.39;83.70;100679.41;4128343;28;20004;-62
2023/01/12 03:19:41;;;;;;;;;;;;;;;6.40;83.32;100664.19;4128853;28;20366;-62
2023/01/12 03:21:46;;;;;;;;;;;;;;;6.40;83.65;100670.38;4126068;28;20615;-64
2023/01/12 03:23:49;;;;;;;;;;;;;;;6.41;83.22;100676.59;4128307;28;19922;-63
2023/01/12 03:25:52;;;;;;;;;;;;;;;6.41;83.48;100664.03;4128801;28;20012;-63
2023/01/12 03:27:54;;;;;;;;;;;;;;;6.41;83.17;100653.31;4128229;28;20013;-63
2023/01/12 03:29:59;;;;;;;;;;;;;;;6.40;83.11;100672.25;4128629;28;20045;-62
2023/01/12 03:32:01;;;;;;;;;;;;;;;6.39;83.33;100666.00;4127017;28;20041;-63
2023/01/12 03:34:03;;;;;;;;;;;;;;;6.39;83.06;100655.28;4127593;28;20052;-63
2023/01/12 03:36:07;;;;;;;;;;;;;;;6.39;83.16;100660.63;4126863;28;20016;-62
2023/01/12 03:38:11;;;;;;;;;;;;;;;6.41;83.25;100665.84;4127887;28;20008;-62
2023/01/12 03:40:15;;;;;;;;;;;;;;;6.41;83.04;100657.81;4128021;28;20024;-61
2023/01/12 03:42:18;;;;;;;;;;;;;;;6.41;82.86;100653.31;4127975;28;20009;-62
2023/01/12 03:44:20;;;;;;;;;;;;;;;6.39;83.08;100652.59;4128509;28;20802;-62
2023/01/12 03:46:24;;;;;;;;;;;;;;;6.40;83.18;100651.59;4128803;28;20033;-62
2023/01/12 03:48:27;;;;;;;;;;;;;;;6.40;83.24;100673.06;4127648;28;20096;-63
2023/01/12 03:50:30;;;;;;;;;;;;;;;6.40;83.02;100667.69;4127750;28;20422;-61
2023/01/12 03:52:34;;;;;;;;;;;;;;;6.40;82.75;100665.03;4127607;28;20037;-60
2023/01/12 03:54:37;;;;;;;;;;;;;;;6.40;82.93;100656.97;4128645;28;20025;-62
2023/01/12 03:56:39;;;;;;;;;;;;;;;6.42;82.96;100648.78;4128274;28;20012;-61
2023/01/12 03:58:41;;;;;;;;;;;;;;;6.42;82.76;100659.50;4128697;28;20012;-62
2023/01/12 04:00:43;;;;;;;;;;;;;;;6.43;82.53;100655.84;4127672;28;20572;-60
2023/01/12 04:02:45;;;;;;;;;;;;;;;6.44;82.40;100655.69;4128386;28;20340;-63
2023/01/12 04:04:47;;;;;;;;;;;;;;;6.46;82.47;100658.22;4128778;28;20422;-62
2023/01/12 04:06:49;;;;;;;;;;;;;;;6.48;82.44;100654.38;4127823;28;20016;-62
2023/01/12 04:08:51;;;;;;;;;;;;;;;6.48;82.29;100651.69;4128005;28;20009;-60
2023/01/12 04:10:55;;;;;;;;;;;;;;;6.50;82.15;100635.44;4127857;28;20016;-62
2023/01/12 04:12:56;;;;;;;;;;;;;;;6.50;82.13;100651.53;4127395;28;20009;-63
2023/01/12 04:14:58;;;;;;;;;;;;;;;6.52;81.71;100637.97;4127807;28;19989;-63
2023/01/12 04:17:00;;;;;;;;;;;;;;;6.51;81.61;100630.94;4127053;28;20009;-60
2023/01/12 04:19:02;;;;;;;;;;;;;;;6.52;81.45;100628.09;4128704;28;20776;-61
2023/01/12 04:21:04;;;;;;;;;;;;;;;6.53;81.45;100631.59;4127475;28;20029;-61
2023/01/12 04:23:06;;;;;;;;;;;;;;;6.53;81.81;100616.34;4126486;28;20004;-61
2023/01/12 04:25:08;;;;;;;;;;;;;;;6.53;81.20;100624.41;4127807;28;19941;-63
2023/01/12 04:27:12;;;;;;;;;;;;;;;6.54;81.55;100619.91;4128734;28;19960;-62
2023/01/12 04:29:14;;;;;;;;;;;;;;;6.55;81.21;100618.88;4131061;28;20025;-62
2023/01/12 04:31:16;;;;;;;;;;;;;;;6.54;80.98;100607.31;4113612;28;20022;-63
2023/01/12 04:33:18;;;;;;;;;;;;;;;6.56;80.86;100626.78;4129813;28;20024;-62
2023/01/12 04:35:20;;;;;;;;;;;;;;;6.56;81.23;100604.47;4131465;28;20020;-63
2023/01/12 04:37:22;;;;;;;;;;;;;;;6.56;80.90;100615.19;4130460;28;20024;-62
2023/01/12 04:39:24;;;;;;;;;;;;;;;6.55;81.10;100600.09;4131173;28;20027;-62
2023/01/12 04:41:26;;;;;;;;;;;;;;;6.54;81.39;100606.47;4130097;28;20033;-62
2023/01/12 04:43:29;;;;;;;;;;;;;;;6.53;81.27;100600.25;4130229;28;20029;-62
2023/01/12 04:45:32;;;;;;;;;;;;;;;6.54;81.35;100601.94;4130970;28;20024;-62
2023/01/12 04:47:34;;;;;;;;;;;;;;;6.57;81.34;100595.44;4130572;28;19932;-62
2023/01/12 04:49:36;;;;;;;;;;;;;;;6.57;81.12;100606.16;4131128;28;20055;-62
2023/01/12 04:51:38;;;;;;;;;;;;;;;6.56;81.09;100618.72;4129852;28;20467;-63
2023/01/12 04:53:40;;;;;;;;;;;;;;;6.59;80.92;100609.53;4113824;28;20408;-60
2023/01/12 04:55:42;;;;;;;;;;;;;;;6.57;80.91;100585.53;4130658;28;20012;-61
2023/01/12 04:57:45;;;;;;;;;;;;;;;6.59;80.79;100596.13;4130315;28;20588;-62
2023/01/12 04:59:49;;;;;;;;;;;;;;;6.58;81.08;100592.59;4130751;28;20017;-63
2023/01/12 05:01:51;;;;;;;;;;;;;;;6.61;80.73;100602.16;4128188;28;20041;-63
2023/01/12 05:03:54;;;;;;;;;;;;;;;6.64;80.71;100596.47;4112773;28;20008;-62
2023/01/12 05:05:56;;;;;;;;;;;;;;;6.63;80.72;100590.28;4130783;28;20685;-62
2023/01/12 05:10:24;;;;;;;;;;;;;;;6.65;80.96;100606.22;4127027;28;20020;-63
2023/01/12 05:12:26;;;;;;;;;;;;;;;6.66;80.80;100583.75;4127080;28;20012;-63
2023/01/12 05:14:28;;;;;;;;;;;;;;;6.68;80.90;100590.66;4130675;28;20020;-63
2023/01/12 05:16:31;;;;;;;;;;;;;;;6.69;80.84;100586.13;4145700;28;20016;-62
2023/01/12 05:18:33;;;;;;;;;;;;;;;6.68;80.43;100589.81;4130066;28;20370;-62
2023/01/12 05:20:35;;;;;;;;;;;;;;;6.69;80.50;100594.16;4129906;28;20048;-63
2023/01/12 05:22:37;;;;;;;;;;;;;;;6.70;80.44;100603.91;4129957;28;20016;-62
2023/01/12 05:24:39;;;;;;;;;;;;;;;6.69;80.19;100594.16;4130536;28;20545;-63
2023/01/12 05:26:41;;;;;;;;;;;;;;;6.71;80.60;100586.81;4127952;28;20427;-63
2023/01/12 05:28:43;;;;;;;;;;;;;;;6.73;80.48;100589.34;4130457;28;20571;-63
2023/01/12 05:30:45;;;;;;;;;;;;;;;6.75;79.97;100569.38;4111912;28;20586;-63
2023/01/12 05:32:48;;;;;;;;;;;;;;;6.77;80.01;100570.09;4129209;28;20029;-62
2023/01/12 05:34:50;;;;;;;;;;;;;;;6.78;80.14;100573.63;4113143;28;20025;-61
2023/01/12 05:36:52;;;;;;;;;;;;;;;6.79;80.21;100564.56;4128427;28;20400;-61
2023/01/12 05:38:54;;;;;;;;;;;;;;;6.81;80.03;100570.63;4128807;28;20008;-62
2023/01/12 05:40:58;;;;;;;;;;;;;;;6.81;80.32;100573.31;4129165;28;20029;-63
2023/01/12 05:45:19;;;;;;;;;;;;;;;6.84;79.73;100578.34;4129702;28;20028;-62
2023/01/12 05:47:21;;;;;;;;;;;;;;;6.85;79.81;100577.38;4128751;28;20012;-60
2023/01/12 05:49:24;;;;;;;;;;;;;;;6.87;79.90;100569.16;4128561;28;20017;-62
2023/01/12 05:51:29;;;;;;;;;;;;;;;6.89;79.97;100572.53;4128736;28;20072;-62
2023/01/12 05:53:31;;;;;;;;;;;;;;;6.90;79.81;100575.06;4128185;28;20363;-63
2023/01/12 05:55:33;;;;;;;;;;;;;;;6.90;79.59;100584.97;4129170;28;20014;-63
2023/01/12 05:57:35;;;;;;;;;;;;;;;6.89;79.60;100572.53;4141531;28;20691;-63
2023/01/12 05:59:37;;;;;;;;;;;;;;;6.92;79.72;100589.16;4129502;28;20012;-64
2023/01/12 06:01:39;;;;;;;;;;;;;;;6.94;79.67;100589.00;4127282;28;20016;-64
2023/01/12 06:03:41;;;;;;;;;;;;;;;6.95;79.50;100583.47;4127295;28;20094;-64
2023/01/12 06:05:44;;;;;;;;;;;;;;;6.95;79.45;100566.53;4128248;28;20021;-64
2023/01/12 06:07:47;;;;;;;;;;;;;;;6.95;79.45;100567.34;4126749;28;19929;-64
2023/01/12 06:09:48;;;;;;;;;;;;;;;6.95;79.81;100571.91;4127515;28;20037;-64
2023/01/12 06:14:10;;;;;;;;;;;;;;;6.96;79.73;100573.56;4127315;28;20012;-64
2023/01/12 06:16:12;;;;;;;;;;;;;;;6.96;79.75;100584.31;4123520;28;20012;-64
2023/01/12 06:18:15;;;;;;;;;;;;;;;6.96;79.54;100566.38;4121232;28;19932;-64
2023/01/12 06:20:18;;;;;;;;;;;;;;;6.98;79.49;100568.91;4126328;28;19926;-65
2023/01/12 06:22:22;;;;;;;;;;;;;;;6.98;79.60;100563.53;4125380;28;20434;-62
2023/01/12 06:24:23;;;;;;;;;;;;;;;6.98;79.82;100560.84;4127165;28;20012;-64
2023/01/12 06:26:26;;;;;;;;;;;;;;;6.97;79.79;100561.84;4127394;28;20017;-65
2023/01/12 06:28:28;;;;;;;;;;;;;;;6.97;79.92;100554.59;4127899;28;19933;-65
2023/01/12 06:30:30;;;;;;;;;;;;;;;6.96;79.74;100563.69;4127784;28;20004;-65
2023/01/12 06:32:32;;;;;;;;;;;;;;;6.99;79.96;100562.50;4127645;28;20012;-64
2023/01/12 06:34:34;;;;;;;;;;;;;;;6.98;79.87;100569.72;4128398;28;19967;-65
2023/01/12 06:36:36;;;;;;;;;;;;;;;6.99;79.66;100560.69;4127377;28;20447;-64
2023/01/12 06:38:40;;;;;;;;;;;;;;;7.02;79.73;100563.06;4128558;28;20407;-64
2023/01/12 06:40:42;;;;;;;;;;;;;;;7.03;79.63;100563.88;4127267;28;20009;-62
2023/01/12 06:42:43;;;;;;;;;;;;;;;7.02;79.41;100544.25;4126966;28;20570;-65
2023/01/12 06:44:45;;;;;;;;;;;;;;;7.02;79.36;100552.31;4119285;28;19941;-64
2023/01/12 06:46:47;;;;;;;;;;;;;;;7.04;79.60;100557.53;4127247;28;20008;-62
2023/01/12 06:48:49;;;;;;;;;;;;;;;7.03;79.37;100534.34;4128244;28;19926;-65
2023/01/12 06:50:52;;;;;;;;;;;;;;;7.04;79.26;100557.53;4126579;28;20024;-64
2023/01/12 06:52:54;;;;;;;;;;;;;;;7.03;79.12;100543.22;4126912;28;20032;-64
2023/01/12 06:54:58;;;;;;;;;;;;;;;7.03;79.48;100555.81;4125882;28;20012;-63
2023/01/12 06:57:00;;;;;;;;;;;;;;;7.01;79.34;100537.19;4127533;28;20085;-63
2023/01/12 06:59:02;;;;;;;;;;;;;;;7.02;79.40;100552.31;4127949;28;20028;-65
2023/01/12 07:01:04;;;;;;;;;;;;;;;7.03;79.71;100547.78;4126661;28;20013;-64
2023/01/12 07:03:06;;;;;;;;;;;;;;;7.06;79.58;100544.78;4126342;28;20016;-63
2023/01/12 07:05:08;;;;;;;;;;;;;;;7.06;79.27;100525.13;4128449;28;20494;-63
2023/01/12 07:07:10;;;;;;;;;;;;;;;7.04;79.44;100534.19;4126934;28;20016;-64
2023/01/12 07:09:12;;;;;;;;;;;;;;;7.06;79.42;100538.56;4127760;28;19929;-64
2023/01/12 07:11:16;;;;;;;;;;;;;;;7.07;79.50;100535.72;4126854;28;20017;-64
2023/01/12 07:13:18;;;;;;;;;;;;;;;7.07;79.38;100535.72;4126733;28;20082;-66
2023/01/12 07:15:20;;;;;;;;;;;;;;;7.09;79.55;100532.88;4128515;28;20029;-62
2023/01/12 07:17:22;;;;;;;;;;;;;;;7.10;79.39;100527.34;4127423;28;20117;-63
2023/01/12 07:19:24;;;;;;;;;;;;;;;7.12;79.57;100538.75;4126353;28;20000;-64
2023/01/12 07:21:26;;;;;;;;;;;;;;;7.13;79.31;100528.84;4125832;28;20020;-63
2023/01/12 07:23:27;;;;;;;;;;;;;;;7.13;79.47;100516.28;4127049;28;20009;-64
2023/01/12 07:25:29;;;;;;;;;;;;;;;7.12;79.19;100530.72;4128436;28;20359;-64
2023/01/12 07:27:33;;;;;;;;;;;;;;;7.12;79.38;100536.06;4127733;28;20368;-63
2023/01/12 07:29:35;;;;;;;;;;;;;;;7.13;79.46;100515.44;4128531;28;19927;-64
2023/01/12 07:31:37;;;;;;;;;;;;;;;7.15;79.24;100526.88;4127570;28;20024;-63
2023/01/12 07:33:39;;;;;;;;;;;;;;;7.13;79.24;100521.66;4128740;28;20021;-64
2023/01/12 07:35:41;;;;;;;;;;;;;;;7.13;79.19;100521.66;4128435;28;20024;-64
2023/01/12 07:37:46;;;;;;;;;;;;;;;7.14;79.39;100520.63;4127961;28;20024;-63
2023/01/12 07:39:48;;;;;;;;;;;;;;;7.16;79.22;100531.22;4128918;28;20028;-64
2023/01/12 07:44:12;;;;;;;;;;;;;;;7.18;79.29;100513.13;4118880;28;20017;-64
2023/01/12 07:46:14;;;;;;;;;;;;;;;7.19;79.39;100504.03;4127255;28;20478;-64
2023/01/12 07:48:16;;;;;;;;;;;;;;;7.20;79.48;100508.41;4106229;28;19936;-63
2023/01/12 07:50:18;;;;;;;;;;;;;;;7.19;79.55;100499.53;4122559;28;20033;-64
2023/01/12 07:52:20;;;;;;;;;;;;;;;7.20;79.25;100501.19;4128251;28;20372;-63
2023/01/12 07:54:22;;;;;;;;;;;;;;;7.21;79.45;100502.88;4128402;28;20438;-64
2023/01/12 07:56:24;;;;;;;;;;;;;;;7.21;79.55;100499.38;4128040;28;20020;-64
2023/01/12 07:58:26;;;;;;;;;;;;;;;7.22;79.47;100493.84;4127573;28;20016;-64
2023/01/12 08:00:30;;;;;;;;;;;;;;;7.27;79.18;100492.50;4128419;28;20020;-64
2023/01/12 08:02:32;;;;;;;;;;;;;;;7.27;79.41;100493.31;4127213;28;20578;-63
2023/01/12 08:04:34;;;;;;;;;;;;;;;7.27;79.08;100479.91;4128276;28;20566;-63
2023/01/12 08:06:36;;;;;;;;;;;;;;;7.21;79.00;100472.50;4130306;28;20020;-64
2023/01/12 08:08:38;;;;;;;;;;;;;;;7.30;79.31;100474.19;4131502;28;20020;-63
2023/01/12 08:10:42;;;;;;;;;;;;;;;7.30;79.06;100476.06;4130113;28;19957;-63
2023/01/12 08:12:44;;;;;;;;;;;;;;;7.32;78.91;100476.72;4130953;28;20016;-61
2023/01/12 08:14:46;;;;;;;;;;;;;;;7.33;79.15;100475.72;4131326;28;20032;-63
2023/01/12 08:16:49;;;;;;;;;;;;;;;7.34;79.01;100470.19;4131213;28;20025;-62
2023/01/12 08:18:52;;;;;;;;;;;;;;;7.36;78.85;100503.09;4131848;28;20024;-63
2023/01/12 08:20:54;;;;;;;;;;;;;;;7.36;78.79;100478.09;4131940;28;20028;-63
2023/01/12 08:22:57;;;;;;;;;;;;;;;7.36;78.90;100483.47;4130825;28;20466;-63
2023/01/12 08:24:59;;;;;;;;;;;;;;;7.38;78.57;100468.00;4131284;28;20014;-63
2023/01/12 08:27:02;;;;;;;;;;;;;;;7.39;78.63;100475.09;4130972;28;20415;-64
2023/01/12 08:29:05;;;;;;;;;;;;;;;7.40;78.66;100491.03;4131061;28;20012;-64
2023/01/12 08:31:08;;;;;;;;;;;;;;;7.42;78.64;100469.38;4128680;28;19960;-65
2023/01/12 08:33:12;;;;;;;;;;;;;;;7.45;78.71;100468.22;4128032;28;20005;-63
2023/01/12 08:35:14;;;;;;;;;;;;;;;7.44;78.47;100466.53;4128938;28;20020;-63
2023/01/12 08:37:16;;;;;;;;;;;;;;;7.45;78.73;100458.31;4128468;28;20008;-62
2023/01/12 08:39:18;;;;;;;;;;;;;;;7.48;78.38;100470.59;4128938;28;20016;-62
2023/01/12 08:41:32;;;;;;;;;;;;;;;7.49;78.50;100462.38;4142405;28;20012;-63
2023/01/12 08:45:53;;;;;;;;;;;;;;;7.52;78.14;100445.91;4131587;28;20907;-63
2023/01/12 08:47:55;;;;;;;;;;;;;;;7.52;78.21;100448.59;4130444;28;20021;-63
2023/01/12 08:49:59;;;;;;;;;;;;;;;7.52;78.08;100437.84;4131516;28;20012;-64
2023/01/12 08:52:01;;;;;;;;;;;;;;;7.53;78.10;100442.19;4130012;28;19929;-64
2023/01/12 08:54:03;;;;;;;;;;;;;;;7.55;78.05;100448.28;4131506;28;20019;-64
2023/01/12 08:56:05;;;;;;;;;;;;;;;7.58;77.95;100466.72;4130922;28;20005;-64
2023/01/12 08:58:07;;;;;;;;;;;;;;;7.60;77.97;100449.59;4130421;28;20020;-64
2023/01/12 09:00:10;;;;;;;;;;;;;;;7.62;77.91;100440.38;4131149;28;20013;-63
2023/01/12 09:02:12;;;;;;;;;;;;;;;7.63;77.72;100463.53;4144804;28;20036;-63
2023/01/12 09:04:14;;;;;;;;;;;;;;;7.64;77.90;100449.13;4130954;28;20021;-63
2023/01/12 09:06:18;;;;;;;;;;;;;;;7.66;77.91;100460.53;4131668;28;20427;-63
2023/01/12 09:08:20;;;;;;;;;;;;;;;7.71;77.84;100443.91;4130421;28;20017;-64
2023/01/12 09:10:22;;;;;;;;;;;;;;;7.71;77.54;100449.28;4130275;28;20028;-63
2023/01/12 09:12:25;;;;;;;;;;;;;;;7.73;77.32;100429.31;4129986;28;20947;-64
2023/01/12 09:14:28;;;;;;;;;;;;;;;7.74;77.39;100435.50;4130809;28;20446;-63
2023/01/12 09:16:30;;;;;;;;;;;;;;;7.75;77.48;100419.22;4130856;28;20021;-63
2023/01/12 09:18:32;;;;;;;;;;;;;;;7.74;77.39;100424.75;4129451;28;20415;-63
2023/01/12 09:20:34;;;;;;;;;;;;;;;7.78;77.34;100423.44;4130491;28;20079;-63
2023/01/12 09:22:38;;;;;;;;;;;;;;;7.80;77.45;100423.25;4130162;28;20020;-63
2023/01/12 09:24:40;;;;;;;;;;;;;;;7.79;77.24;100417.06;4130076;28;20021;-63
2023/01/12 09:26:43;;;;;;;;;;;;;;;7.80;77.04;100405.28;4125770;28;20036;-64
2023/01/12 09:28:45;;;;;;;;;;;;;;;7.82;77.10;100422.09;4124154;28;20004;-64
2023/01/12 09:30:47;;;;;;;;;;;;;;;7.84;77.47;100406.63;4128753;28;20414;-62
2023/01/12 09:32:49;;;;;;;;;;;;;;;7.84;77.27;100406.63;4126370;28;19961;-65
2023/01/12 09:34:54;;;;;;;;;;;;;;;7.86;77.25;100395.72;4128004;28;20012;-65
2023/01/12 09:36:58;;;;;;;;;;;;;;;7.89;76.82;100422.28;4112529;28;19940;-65
2023/01/12 09:39:01;;;;;;;;;;;;;;;7.88;77.15;100391.84;4130431;28;19930;-64
2023/01/12 09:41:09;;;;;;;;;;;;;;;7.92;76.41;100411.19;4124195;28;20083;-65
2023/01/12 09:47:52;;;;;;;;;;;;;;;8.00;76.31;100402.28;4129906;28;20000;-65
2023/01/12 09:49:55;;;;;;;;;;;;;;;8.02;76.15;100400.25;4129842;28;20487;-64
2023/01/12 09:51:58;;;;;;;;;;;;;;;8.03;75.99;100396.56;4129234;28;20067;-64
2023/01/12 09:53:59;;;;;;;;;;;;;;;8.06;76.23;100377.41;4130417;28;20012;-64
2023/01/12 09:56:04;;;;;;;;;;;;;;;8.08;76.00;100395.03;4130384;28;20028;-63
2023/01/12 09:58:09;;;;;;;;;;;;;;;8.11;75.83;100372.34;4129242;28;20012;-63
2023/01/12 10:00:11;;;;;;;;;;;;;;;8.12;75.99;100376.72;4129821;28;20020;-63
2023/01/12 10:02:16;;;;;;;;;;;;;;;8.14;76.30;100371.16;4129297;28;20020;-63
2023/01/12 10:04:18;;;;;;;;;;;;;;;8.19;75.75;100388.47;4144069;28;20052;-63
2023/01/12 10:06:20;;;;;;;;;;;;;;;8.21;75.87;100364.06;4144033;28;20024;-63
2023/01/12 10:08:24;;;;;;;;;;;;;;;8.24;75.61;100387.94;4129355;28;20033;-64
2023/01/12 10:10:26;;;;;;;;;;;;;;;8.25;75.85;100349.28;4129984;28;20424;-63
2023/01/12 10:12:30;;;;;;;;;;;;;;;8.26;75.74;100367.94;4129357;28;20009;-64
2023/01/12 10:14:47;;;;;;;;;;;;;;;8.27;75.12;100341.88;4129655;28;19921;-63
2023/01/12 10:17:01;;;;;;;;;;;;;;;8.25;75.46;100346.59;4120576;28;20012;-63
2023/01/12 10:19:05;;;;;;;;;;;;;;;8.30;75.57;100357.66;4129079;28;20438;-64
2023/01/12 10:21:08;;;;;;;;;;;;;;;8.33;75.50;100357.31;4128962;28;20629;-57
2023/01/12 10:23:11;;;;;;;;;;;;;;;8.35;75.07;100352.59;4128185;28;20103;-63
2023/01/12 10:25:14;;;;;;;;;;;;;;;8.39;74.96;100350.44;4143750;28;20068;-65
2023/01/12 10:27:16;;;;;;;;;;;;;;;8.38;75.17;100346.88;4128229;28;20442;-65
2023/01/12 10:29:20;;;;;;;;;;;;;;;8.40;74.88;100331.41;4129626;28;20004;-65
2023/01/12 10:31:23;;;;;;;;;;;;;;;8.41;74.92;100326.88;4129245;28;20021;-66
2023/01/12 10:33:25;;;;;;;;;;;;;;;8.42;75.00;100347.41;4128598;28;20020;-65
2023/01/12 10:35:27;;;;;;;;;;;;;;;8.45;74.79;100350.59;4129621;28;19922;-64
2023/01/12 10:37:29;;;;;;;;;;;;;;;8.44;74.91;100318.47;4128467;28;20358;-64
2023/01/12 10:39:32;;;;;;;;;;;;;;;8.44;74.74;100340.00;4129401;28;20044;-64
2023/01/12 10:41:34;;;;;;;;;;;;;;;8.46;74.77;100336.16;4128897;28;20021;-65
2023/01/12 10:43:36;;;;;;;;;;;;;;;8.46;74.59;100332.59;4128272;28;20025;-65
2023/01/12 10:45:41;;;;;;;;;;;;;;;8.48;74.52;100325.22;4129477;28;20024;-66
2023/01/12 10:47:43;;;;;;;;;;;;;;;8.46;74.75;100340.66;4128357;28;20020;-65
2023/01/12 10:49:45;;;;;;;;;;;;;;;8.47;75.08;100335.13;4128498;28;20012;-65
2023/01/12 10:51:52;;;;;;;;;;;;;;;8.49;74.84;100318.78;4127301;28;20033;-64
2023/01/12 10:53:56;;;;;;;;;;;;;;;8.50;74.49;100322.34;4128019;28;20024;-65
2023/01/12 10:55:58;;;;;;;;;;;;;;;8.52;74.58;100323.00;4128222;28;19964;-69
2023/01/12 10:58:00;;;;;;;;;;;;;;;8.58;74.47;100309.69;4126805;28;20013;-68
2023/01/12 11:00:04;;;;;;;;;;;;;;;8.56;74.46;100295.56;4127622;28;20016;-66
2023/01/12 11:02:14;;;;;;;;;;;;;;;8.57;74.57;100326.81;4127164;28;20036;-67
2023/01/12 11:04:19;;;;;;;;;;;;;;;8.56;74.54;100292.03;4127394;28;21410;-65
2023/01/12 11:06:25;;;;;;;;;;;;;;;8.56;75.12;100316.25;4128657;28;20056;-67
2023/01/12 11:08:28;;;;;;;;;;;;;;;8.56;75.02;100346.69;4128478;28;20016;-65
2023/01/12 11:10:30;;;;;;;;;;;;;;;8.57;75.37;100294.53;4128141;28;20021;-66
2023/01/12 11:12:33;;;;;;;;;;;;;;;8.54;75.68;100286.84;4128344;28;20008;-66